sensor_id;sensor_type;location;lat;lon;timestamp;P1;durP1;ratioP1;P2;durP2;ratioP2
21472;SDS011;10898;48.072;11.682;2024-01-06T00:01:54;6.40;;;5.80;;
21472;SDS011;10898;48.072;11.682;2024-01-06T00:03:55;5.90;;;5.40;;
21472;SDS011;10898;48.072;11.682;2024-01-06T00:05:57;6.03;;;5.47;;
21472;SDS011;10898;48.072;11.682;2024-01-06T00:08:01;5.10;;;4.68;;
21472;SDS011;10898;48.072;11.682;2024-01-06T00:10:03;6.15;;;5.32;;
21472;SDS011;10898;48.072;11.682;2024-01-06T00:12:05;7.20;;;6.13;;
21472;SDS011;10898;48.072;11.682;2024-01-06T00:14:07;5.78;;;5.22;;
21472;SDS011;10898;48.072;11.682;2024-01-06T00:16:09;6.27;;;5.53;;
21472;SDS011;10898;48.072;11.682;2024-01-06T00:18:11;6.45;;;5.78;;
21472;SDS011;10898;48.072;11.682;2024-01-06T00:20:13;6.38;;;5.78;;
21472;SDS011;10898;48.072;11.682;2024-01-06T00:22:15;5.88;;;4.97;;
21472;SDS011;10898;48.072;11.682;2024-01-06T00:24:17;5.88;;;5.22;;
21472;SDS011;10898;48.072;11.682;2024-01-06T00:26:18;6.85;;;5.53;;
21472;SDS011;10898;48.072;11.682;2024-01-06T00:28:20;5.60;;;5.10;;
21472;SDS011;10898;48.072;11.682;2024-01-06T00:30:22;6.80;;;6.10;;
21472;SDS011;10898;48.072;11.682;2024-01-06T00:32:24;5.95;;;5.35;;
21472;SDS011;10898;48.072;11.682;2024-01-06T00:34:26;5.65;;;5.15;;
21472;SDS011;10898;48.072;11.682;2024-01-06T00:36:28;6.13;;;5.53;;
21472;SDS011;10898;48.072;11.682;2024-01-06T00:38:30;6.47;;;5.87;;
21472;SDS011;10898;48.072;11.682;2024-01-06T00:40:31;7.22;;;6.35;;
21472;SDS011;10898;48.072;11.682;2024-01-06T00:42:34;6.85;;;6.18;;
21472;SDS011;10898;48.072;11.682;2024-01-06T00:44:36;6.10;;;5.50;;
21472;SDS011;10898;48.072;11.682;2024-01-06T00:48:41;5.97;;;5.38;;
21472;SDS011;10898;48.072;11.682;2024-01-06T00:50:43;5.90;;;5.25;;
21472;SDS011;10898;48.072;11.682;2024-01-06T00:52:45;6.82;;;5.95;;
21472;SDS011;10898;48.072;11.682;2024-01-06T00:54:47;6.17;;;5.53;;
21472;SDS011;10898;48.072;11.682;2024-01-06T00:56:49;6.22;;;5.63;;
21472;SDS011;10898;48.072;11.682;2024-01-06T00:58:50;6.83;;;5.93;;
21472;SDS011;10898;48.072;11.682;2024-01-06T01:00:52;5.60;;;5.10;;
21472;SDS011;10898;48.072;11.682;2024-01-06T01:02:54;7.38;;;5.90;;
21472;SDS011;10898;48.072;11.682;2024-01-06T01:04:56;6.63;;;5.88;;
21472;SDS011;10898;48.072;11.682;2024-01-06T01:06:58;5.95;;;5.35;;
21472;SDS011;10898;48.072;11.682;2024-01-06T01:09:00;5.73;;;5.23;;
21472;SDS011;10898;48.072;11.682;2024-01-06T01:11:02;6.70;;;5.40;;
21472;SDS011;10898;48.072;11.682;2024-01-06T01:13:04;5.50;;;4.85;;
21472;SDS011;10898;48.072;11.682;2024-01-06T01:15:06;5.27;;;4.77;;
21472;SDS011;10898;48.072;11.682;2024-01-06T01:17:08;5.78;;;4.50;;
21472;SDS011;10898;48.072;11.682;2024-01-06T01:19:10;4.90;;;4.30;;
21472;SDS011;10898;48.072;11.682;2024-01-06T01:21:12;4.53;;;4.13;;
21472;SDS011;10898;48.072;11.682;2024-01-06T01:23:14;4.93;;;4.47;;
21472;SDS011;10898;48.072;11.682;2024-01-06T01:25:16;5.20;;;4.77;;
21472;SDS011;10898;48.072;11.682;2024-01-06T01:27:17;4.38;;;3.97;;
21472;SDS011;10898;48.072;11.682;2024-01-06T01:29:19;4.43;;;4.03;;
21472;SDS011;10898;48.072;11.682;2024-01-06T01:31:21;4.00;;;3.60;;
21472;SDS011;10898;48.072;11.682;2024-01-06T01:33:23;4.60;;;4.10;;
21472;SDS011;10898;48.072;11.682;2024-01-06T01:37:27;3.92;;;3.53;;
21472;SDS011;10898;48.072;11.682;2024-01-06T01:39:29;3.53;;;3.22;;
21472;SDS011;10898;48.072;11.682;2024-01-06T01:41:31;4.32;;;3.42;;
21472;SDS011;10898;48.072;11.682;2024-01-06T01:43:33;4.17;;;3.80;;
21472;SDS011;10898;48.072;11.682;2024-01-06T01:45:35;4.53;;;4.13;;
21472;SDS011;10898;48.072;11.682;2024-01-06T01:47:37;4.50;;;4.10;;
21472;SDS011;10898;48.072;11.682;2024-01-06T01:49:40;4.97;;;4.18;;
21472;SDS011;10898;48.072;11.682;2024-01-06T01:51:42;3.92;;;3.53;;
21472;SDS011;10898;48.072;11.682;2024-01-06T01:53:45;4.43;;;4.00;;
21472;SDS011;10898;48.072;11.682;2024-01-06T01:55:47;4.45;;;4.05;;
21472;SDS011;10898;48.072;11.682;2024-01-06T01:57:50;4.97;;;4.40;;
21472;SDS011;10898;48.072;11.682;2024-01-06T01:59:52;6.13;;;4.75;;
21472;SDS011;10898;48.072;11.682;2024-01-06T02:03:57;4.63;;;4.22;;
21472;SDS011;10898;48.072;11.682;2024-01-06T02:05:59;4.68;;;4.28;;
21472;SDS011;10898;48.072;11.682;2024-01-06T02:08:01;3.60;;;3.30;;
21472;SDS011;10898;48.072;11.682;2024-01-06T02:10:03;4.15;;;3.70;;
21472;SDS011;10898;48.072;11.682;2024-01-06T02:14:07;4.43;;;4.03;;
21472;SDS011;10898;48.072;11.682;2024-01-06T02:16:09;4.35;;;3.95;;
21472;SDS011;10898;48.072;11.682;2024-01-06T02:18:11;3.27;;;2.97;;
21472;SDS011;10898;48.072;11.682;2024-01-06T02:20:13;4.28;;;3.20;;
21472;SDS011;10898;48.072;11.682;2024-01-06T02:22:17;3.80;;;3.33;;
21472;SDS011;10898;48.072;11.682;2024-01-06T02:24:19;3.40;;;3.10;;
21472;SDS011;10898;48.072;11.682;2024-01-06T02:26:21;3.60;;;3.30;;
21472;SDS011;10898;48.072;11.682;2024-01-06T02:28:23;3.50;;;3.20;;
21472;SDS011;10898;48.072;11.682;2024-01-06T02:30:25;3.50;;;3.20;;
21472;SDS011;10898;48.072;11.682;2024-01-06T02:32:27;3.20;;;2.90;;
21472;SDS011;10898;48.072;11.682;2024-01-06T02:34:28;3.63;;;3.33;;
21472;SDS011;10898;48.072;11.682;2024-01-06T02:36:30;3.53;;;3.22;;
21472;SDS011;10898;48.072;11.682;2024-01-06T02:38:32;3.38;;;3.08;;
21472;SDS011;10898;48.072;11.682;2024-01-06T02:40:34;3.40;;;3.10;;
21472;SDS011;10898;48.072;11.682;2024-01-06T02:42:36;4.70;;;3.60;;
21472;SDS011;10898;48.072;11.682;2024-01-06T02:44:38;4.28;;;3.88;;
21472;SDS011;10898;48.072;11.682;2024-01-06T02:46:40;3.97;;;3.50;;
21472;SDS011;10898;48.072;11.682;2024-01-06T02:48:42;3.65;;;3.35;;
21472;SDS011;10898;48.072;11.682;2024-01-06T02:50:44;4.13;;;3.47;;
21472;SDS011;10898;48.072;11.682;2024-01-06T02:52:47;3.40;;;3.10;;
21472;SDS011;10898;48.072;11.682;2024-01-06T02:54:49;3.45;;;2.90;;
21472;SDS011;10898;48.072;11.682;2024-01-06T02:56:51;2.97;;;2.75;;
21472;SDS011;10898;48.072;11.682;2024-01-06T02:58:53;3.47;;;3.17;;
21472;SDS011;10898;48.072;11.682;2024-01-06T03:00:54;3.77;;;3.33;;
21472;SDS011;10898;48.072;11.682;2024-01-06T03:02:56;3.08;;;2.83;;
21472;SDS011;10898;48.072;11.682;2024-01-06T03:04:58;3.03;;;2.72;;
21472;SDS011;10898;48.072;11.682;2024-01-06T03:07:00;2.75;;;2.10;;
21472;SDS011;10898;48.072;11.682;2024-01-06T03:09:02;2.85;;;2.65;;
21472;SDS011;10898;48.072;11.682;2024-01-06T03:11:04;2.67;;;2.47;;
21472;SDS011;10898;48.072;11.682;2024-01-06T03:15:08;1.60;;;1.50;;
21472;SDS011;10898;48.072;11.682;2024-01-06T03:17:11;2.00;;;1.90;;
21472;SDS011;10898;48.072;11.682;2024-01-06T03:19:13;1.70;;;1.60;;
21472;SDS011;10898;48.072;11.682;2024-01-06T03:21:18;1.25;;;1.23;;
21472;SDS011;10898;48.072;11.682;2024-01-06T03:23:21;1.58;;;1.48;;
21472;SDS011;10898;48.072;11.682;2024-01-06T03:25:22;1.77;;;1.67;;
21472;SDS011;10898;48.072;11.682;2024-01-06T03:27:24;1.48;;;1.42;;
21472;SDS011;10898;48.072;11.682;2024-01-06T03:29:26;1.48;;;1.48;;
21472;SDS011;10898;48.072;11.682;2024-01-06T03:31:29;1.63;;;1.60;;
21472;SDS011;10898;48.072;11.682;2024-01-06T03:33:31;1.27;;;1.27;;
21472;SDS011;10898;48.072;11.682;2024-01-06T03:37:38;1.63;;;1.55;;
21472;SDS011;10898;48.072;11.682;2024-01-06T03:39:40;1.63;;;1.52;;
21472;SDS011;10898;48.072;11.682;2024-01-06T03:41:42;2.78;;;1.90;;
21472;SDS011;10898;48.072;11.682;2024-01-06T03:43:44;1.50;;;1.40;;
21472;SDS011;10898;48.072;11.682;2024-01-06T03:45:45;1.70;;;1.60;;
21472;SDS011;10898;48.072;11.682;2024-01-06T03:47:47;1.43;;;1.33;;
21472;SDS011;10898;48.072;11.682;2024-01-06T03:49:49;1.65;;;1.55;;
21472;SDS011;10898;48.072;11.682;2024-01-06T03:51:51;1.83;;;1.73;;
21472;SDS011;10898;48.072;11.682;2024-01-06T03:53:53;2.13;;;2.03;;
21472;SDS011;10898;48.072;11.682;2024-01-06T03:55:55;1.88;;;1.77;;
21472;SDS011;10898;48.072;11.682;2024-01-06T03:57:57;1.80;;;1.70;;
21472;SDS011;10898;48.072;11.682;2024-01-06T03:59:59;2.17;;;2.03;;
21472;SDS011;10898;48.072;11.682;2024-01-06T04:02:00;1.67;;;1.57;;
21472;SDS011;10898;48.072;11.682;2024-01-06T04:04:03;1.77;;;1.67;;
21472;SDS011;10898;48.072;11.682;2024-01-06T04:06:05;1.70;;;1.60;;
21472;SDS011;10898;48.072;11.682;2024-01-06T04:08:07;1.65;;;1.55;;
21472;SDS011;10898;48.072;11.682;2024-01-06T04:10:09;1.70;;;1.60;;
21472;SDS011;10898;48.072;11.682;2024-01-06T04:12:11;1.73;;;1.63;;
21472;SDS011;10898;48.072;11.682;2024-01-06T04:14:13;1.88;;;1.70;;
21472;SDS011;10898;48.072;11.682;2024-01-06T04:16:15;1.70;;;1.60;;
21472;SDS011;10898;48.072;11.682;2024-01-06T04:18:16;1.60;;;1.50;;
21472;SDS011;10898;48.072;11.682;2024-01-06T04:20:19;1.45;;;1.45;;
21472;SDS011;10898;48.072;11.682;2024-01-06T04:22:21;1.67;;;1.58;;
21472;SDS011;10898;48.072;11.682;2024-01-06T04:24:23;1.13;;;1.13;;
21472;SDS011;10898;48.072;11.682;2024-01-06T04:26:25;1.50;;;1.50;;
21472;SDS011;10898;48.072;11.682;2024-01-06T04:28:27;1.07;;;1.07;;
21472;SDS011;10898;48.072;11.682;2024-01-06T04:30:29;1.20;;;1.20;;
21472;SDS011;10898;48.072;11.682;2024-01-06T04:32:31;1.20;;;1.20;;
21472;SDS011;10898;48.072;11.682;2024-01-06T04:34:33;1.58;;;1.52;;
21472;SDS011;10898;48.072;11.682;2024-01-06T04:36:35;1.40;;;1.40;;
21472;SDS011;10898;48.072;11.682;2024-01-06T04:38:36;1.20;;;1.20;;
21472;SDS011;10898;48.072;11.682;2024-01-06T04:40:38;1.47;;;1.37;;
21472;SDS011;10898;48.072;11.682;2024-01-06T04:42:40;1.60;;;1.50;;
21472;SDS011;10898;48.072;11.682;2024-01-06T04:44:42;1.20;;;1.20;;
21472;SDS011;10898;48.072;11.682;2024-01-06T04:46:44;1.20;;;1.20;;
21472;SDS011;10898;48.072;11.682;2024-01-06T04:48:46;1.03;;;1.03;;
21472;SDS011;10898;48.072;11.682;2024-01-06T04:50:48;1.13;;;1.13;;
21472;SDS011;10898;48.072;11.682;2024-01-06T04:52:50;1.30;;;1.30;;
21472;SDS011;10898;48.072;11.682;2024-01-06T04:54:53;1.00;;;1.00;;
21472;SDS011;10898;48.072;11.682;2024-01-06T04:56:55;1.20;;;1.20;;
21472;SDS011;10898;48.072;11.682;2024-01-06T04:58:57;1.10;;;1.10;;
21472;SDS011;10898;48.072;11.682;2024-01-06T05:00:59;1.30;;;1.20;;
21472;SDS011;10898;48.072;11.682;2024-01-06T05:03:01;1.25;;;1.25;;
21472;SDS011;10898;48.072;11.682;2024-01-06T05:05:03;1.15;;;1.15;;
21472;SDS011;10898;48.072;11.682;2024-01-06T05:07:05;1.13;;;1.13;;
21472;SDS011;10898;48.072;11.682;2024-01-06T05:09:06;1.20;;;1.20;;
21472;SDS011;10898;48.072;11.682;2024-01-06T05:11:08;1.10;;;1.10;;
21472;SDS011;10898;48.072;11.682;2024-01-06T05:13:10;1.15;;;1.10;;
21472;SDS011;10898;48.072;11.682;2024-01-06T05:15:12;1.20;;;1.10;;
21472;SDS011;10898;48.072;11.682;2024-01-06T05:17:14;1.35;;;1.35;;
21472;SDS011;10898;48.072;11.682;2024-01-06T05:19:16;1.08;;;1.08;;
21472;SDS011;10898;48.072;11.682;2024-01-06T05:21:22;1.10;;;1.10;;
21472;SDS011;10898;48.072;11.682;2024-01-06T05:23:24;1.30;;;1.30;;
21472;SDS011;10898;48.072;11.682;2024-01-06T05:25:26;1.10;;;1.10;;
21472;SDS011;10898;48.072;11.682;2024-01-06T05:27:28;1.17;;;1.17;;
21472;SDS011;10898;48.072;11.682;2024-01-06T05:29:30;1.03;;;1.03;;
21472;SDS011;10898;48.072;11.682;2024-01-06T05:31:31;1.30;;;1.30;;
21472;SDS011;10898;48.072;11.682;2024-01-06T05:33:33;1.02;;;1.02;;
21472;SDS011;10898;48.072;11.682;2024-01-06T05:35:35;1.20;;;1.20;;
21472;SDS011;10898;48.072;11.682;2024-01-06T05:37:38;1.13;;;1.13;;
21472;SDS011;10898;48.072;11.682;2024-01-06T05:39:40;1.02;;;1.02;;
21472;SDS011;10898;48.072;11.682;2024-01-06T05:41:42;1.00;;;1.00;;
21472;SDS011;10898;48.072;11.682;2024-01-06T05:43:44;1.23;;;1.23;;
21472;SDS011;10898;48.072;11.682;2024-01-06T05:45:45;1.20;;;1.20;;
21472;SDS011;10898;48.072;11.682;2024-01-06T05:47:47;0.90;;;0.90;;
21472;SDS011;10898;48.072;11.682;2024-01-06T05:49:49;1.20;;;1.20;;
21472;SDS011;10898;48.072;11.682;2024-01-06T05:51:51;1.00;;;1.00;;
21472;SDS011;10898;48.072;11.682;2024-01-06T05:53:53;1.17;;;1.08;;
21472;SDS011;10898;48.072;11.682;2024-01-06T05:55:55;1.00;;;1.00;;
21472;SDS011;10898;48.072;11.682;2024-01-06T05:57:57;1.10;;;1.10;;
21472;SDS011;10898;48.072;11.682;2024-01-06T05:59:59;1.40;;;1.38;;
21472;SDS011;10898;48.072;11.682;2024-01-06T06:02:01;1.20;;;1.20;;
21472;SDS011;10898;48.072;11.682;2024-01-06T06:04:03;1.30;;;1.30;;
21472;SDS011;10898;48.072;11.682;2024-01-06T06:06:05;1.45;;;1.45;;
21472;SDS011;10898;48.072;11.682;2024-01-06T06:08:07;1.30;;;1.27;;
21472;SDS011;10898;48.072;11.682;2024-01-06T06:10:09;1.40;;;1.30;;
21472;SDS011;10898;48.072;11.682;2024-01-06T06:12:12;1.10;;;1.10;;
21472;SDS011;10898;48.072;11.682;2024-01-06T06:14:15;1.33;;;1.33;;
21472;SDS011;10898;48.072;11.682;2024-01-06T06:16:16;1.20;;;1.20;;
21472;SDS011;10898;48.072;11.682;2024-01-06T06:18:18;1.40;;;1.40;;
21472;SDS011;10898;48.072;11.682;2024-01-06T06:20:20;1.48;;;1.38;;
21472;SDS011;10898;48.072;11.682;2024-01-06T06:22:22;1.90;;;1.33;;
21472;SDS011;10898;48.072;11.682;2024-01-06T06:24:24;1.50;;;1.38;;
21472;SDS011;10898;48.072;11.682;2024-01-06T06:26:26;1.20;;;1.10;;
21472;SDS011;10898;48.072;11.682;2024-01-06T06:28:29;1.70;;;1.60;;
21472;SDS011;10898;48.072;11.682;2024-01-06T06:30:31;1.30;;;1.30;;
21472;SDS011;10898;48.072;11.682;2024-01-06T06:32:33;1.38;;;1.27;;
21472;SDS011;10898;48.072;11.682;2024-01-06T06:34:35;1.08;;;1.08;;
21472;SDS011;10898;48.072;11.682;2024-01-06T06:36:37;1.52;;;1.42;;
21472;SDS011;10898;48.072;11.682;2024-01-06T06:38:39;1.15;;;1.15;;
21472;SDS011;10898;48.072;11.682;2024-01-06T06:40:41;1.20;;;1.20;;
21472;SDS011;10898;48.072;11.682;2024-01-06T06:42:43;1.48;;;1.48;;
21472;SDS011;10898;48.072;11.682;2024-01-06T06:44:45;1.10;;;1.10;;
21472;SDS011;10898;48.072;11.682;2024-01-06T06:46:48;1.50;;;1.35;;
21472;SDS011;10898;48.072;11.682;2024-01-06T06:48:49;1.60;;;1.50;;
21472;SDS011;10898;48.072;11.682;2024-01-06T06:50:51;1.20;;;1.20;;
21472;SDS011;10898;48.072;11.682;2024-01-06T06:52:53;1.38;;;1.38;;
21472;SDS011;10898;48.072;11.682;2024-01-06T06:54:55;1.65;;;1.13;;
21472;SDS011;10898;48.072;11.682;2024-01-06T06:56:57;1.17;;;1.17;;
21472;SDS011;10898;48.072;11.682;2024-01-06T06:58:59;1.30;;;1.30;;
21472;SDS011;10898;48.072;11.682;2024-01-06T07:01:00;1.30;;;1.30;;
21472;SDS011;10898;48.072;11.682;2024-01-06T07:03:03;2.60;;;2.42;;
21472;SDS011;10898;48.072;11.682;2024-01-06T07:05:05;2.88;;;2.60;;
21472;SDS011;10898;48.072;11.682;2024-01-06T07:07:09;2.45;;;2.25;;
21472;SDS011;10898;48.072;11.682;2024-01-06T07:09:11;1.97;;;1.87;;
21472;SDS011;10898;48.072;11.682;2024-01-06T07:11:13;2.30;;;2.20;;
21472;SDS011;10898;48.072;11.682;2024-01-06T07:13:19;2.08;;;1.88;;
21472;SDS011;10898;48.072;11.682;2024-01-06T07:15:21;2.95;;;2.50;;
21472;SDS011;10898;48.072;11.682;2024-01-06T07:17:23;2.47;;;2.28;;
21472;SDS011;10898;48.072;11.682;2024-01-06T07:19:25;2.03;;;1.92;;
21472;SDS011;10898;48.072;11.682;2024-01-06T07:21:27;2.22;;;2.03;;
21472;SDS011;10898;48.072;11.682;2024-01-06T07:23:29;2.47;;;2.38;;
21472;SDS011;10898;48.072;11.682;2024-01-06T07:25:30;2.13;;;2.03;;
21472;SDS011;10898;48.072;11.682;2024-01-06T07:27:32;2.88;;;2.38;;
21472;SDS011;10898;48.072;11.682;2024-01-06T07:29:34;2.38;;;2.13;;
21472;SDS011;10898;48.072;11.682;2024-01-06T07:31:36;2.72;;;1.98;;
21472;SDS011;10898;48.072;11.682;2024-01-06T07:33:38;2.50;;;2.30;;
21472;SDS011;10898;48.072;11.682;2024-01-06T07:35:41;2.47;;;2.38;;
21472;SDS011;10898;48.072;11.682;2024-01-06T07:37:44;2.10;;;2.00;;
21472;SDS011;10898;48.072;11.682;2024-01-06T07:39:46;2.70;;;2.50;;
21472;SDS011;10898;48.072;11.682;2024-01-06T07:41:48;3.45;;;2.45;;
21472;SDS011;10898;48.072;11.682;2024-01-06T07:43:49;2.40;;;2.30;;
21472;SDS011;10898;48.072;11.682;2024-01-06T07:45:51;2.37;;;2.03;;
21472;SDS011;10898;48.072;11.682;2024-01-06T07:47:54;1.90;;;1.80;;
21472;SDS011;10898;48.072;11.682;2024-01-06T07:49:55;2.45;;;2.00;;
21472;SDS011;10898;48.072;11.682;2024-01-06T07:51:58;2.40;;;1.90;;
21472;SDS011;10898;48.072;11.682;2024-01-06T07:56:03;1.90;;;1.80;;
21472;SDS011;10898;48.072;11.682;2024-01-06T07:58:05;2.22;;;2.13;;
21472;SDS011;10898;48.072;11.682;2024-01-06T08:00:07;2.55;;;2.30;;
21472;SDS011;10898;48.072;11.682;2024-01-06T08:02:09;2.22;;;1.95;;
21472;SDS011;10898;48.072;11.682;2024-01-06T08:04:11;2.30;;;2.20;;
21472;SDS011;10898;48.072;11.682;2024-01-06T08:06:13;1.73;;;1.63;;
21472;SDS011;10898;48.072;11.682;2024-01-06T08:08:15;2.50;;;2.30;;
21472;SDS011;10898;48.072;11.682;2024-01-06T08:10:18;2.33;;;2.20;;
21472;SDS011;10898;48.072;11.682;2024-01-06T08:12:20;3.85;;;2.97;;
21472;SDS011;10898;48.072;11.682;2024-01-06T08:14:22;2.75;;;2.55;;
21472;SDS011;10898;48.072;11.682;2024-01-06T08:16:23;3.20;;;2.73;;
21472;SDS011;10898;48.072;11.682;2024-01-06T08:18:25;2.40;;;2.20;;
21472;SDS011;10898;48.072;11.682;2024-01-06T08:20:28;2.40;;;2.30;;
21472;SDS011;10898;48.072;11.682;2024-01-06T08:22:30;2.72;;;2.20;;
21472;SDS011;10898;48.072;11.682;2024-01-06T08:24:32;3.38;;;2.67;;
21472;SDS011;10898;48.072;11.682;2024-01-06T08:26:35;3.00;;;2.72;;
21472;SDS011;10898;48.072;11.682;2024-01-06T08:28:36;2.20;;;2.00;;
21472;SDS011;10898;48.072;11.682;2024-01-06T08:30:39;2.92;;;2.60;;
21472;SDS011;10898;48.072;11.682;2024-01-06T08:32:40;2.42;;;2.33;;
21472;SDS011;10898;48.072;11.682;2024-01-06T08:34:42;3.13;;;2.22;;
21472;SDS011;10898;48.072;11.682;2024-01-06T08:36:44;2.28;;;2.17;;
21472;SDS011;10898;48.072;11.682;2024-01-06T08:38:47;2.17;;;2.08;;
21472;SDS011;10898;48.072;11.682;2024-01-06T08:40:48;1.83;;;1.73;;
21472;SDS011;10898;48.072;11.682;2024-01-06T08:44:53;2.08;;;1.98;;
21472;SDS011;10898;48.072;11.682;2024-01-06T08:46:55;2.00;;;1.90;;
21472;SDS011;10898;48.072;11.682;2024-01-06T08:48:57;2.35;;;2.25;;
21472;SDS011;10898;48.072;11.682;2024-01-06T08:50:59;2.17;;;2.03;;
21472;SDS011;10898;48.072;11.682;2024-01-06T08:53:01;2.42;;;2.33;;
21472;SDS011;10898;48.072;11.682;2024-01-06T08:55:03;2.87;;;2.67;;
21472;SDS011;10898;48.072;11.682;2024-01-06T08:57:05;2.13;;;2.03;;
21472;SDS011;10898;48.072;11.682;2024-01-06T08:59:07;2.20;;;2.10;;
21472;SDS011;10898;48.072;11.682;2024-01-06T09:01:09;2.50;;;2.30;;
21472;SDS011;10898;48.072;11.682;2024-01-06T09:03:12;2.30;;;2.20;;
21472;SDS011;10898;48.072;11.682;2024-01-06T09:05:14;2.45;;;2.25;;
21472;SDS011;10898;48.072;11.682;2024-01-06T09:07:16;2.50;;;2.25;;
21472;SDS011;10898;48.072;11.682;2024-01-06T09:11:20;2.65;;;2.38;;
21472;SDS011;10898;48.072;11.682;2024-01-06T09:13:22;3.30;;;2.53;;
21472;SDS011;10898;48.072;11.682;2024-01-06T09:17:26;2.45;;;2.25;;
21472;SDS011;10898;48.072;11.682;2024-01-06T09:19:28;2.53;;;2.33;;
21472;SDS011;10898;48.072;11.682;2024-01-06T09:21:30;2.40;;;2.08;;
21472;SDS011;10898;48.072;11.682;2024-01-06T09:23:32;2.65;;;2.45;;
21472;SDS011;10898;48.072;11.682;2024-01-06T09:25:34;3.03;;;2.60;;
21472;SDS011;10898;48.072;11.682;2024-01-06T09:27:36;2.57;;;2.37;;
21472;SDS011;10898;48.072;11.682;2024-01-06T09:29:37;5.00;;;2.97;;
21472;SDS011;10898;48.072;11.682;2024-01-06T09:31:39;4.32;;;3.17;;
21472;SDS011;10898;48.072;11.682;2024-01-06T09:33:42;4.00;;;3.15;;
21472;SDS011;10898;48.072;11.682;2024-01-06T09:35:44;3.42;;;3.13;;
21472;SDS011;10898;48.072;11.682;2024-01-06T09:37:46;3.03;;;2.80;;
21472;SDS011;10898;48.072;11.682;2024-01-06T09:39:47;3.13;;;2.83;;
21472;SDS011;10898;48.072;11.682;2024-01-06T09:43:52;4.03;;;2.73;;
21472;SDS011;10898;48.072;11.682;2024-01-06T09:46:37;4.88;;;3.13;;
21472;SDS011;10898;48.072;11.682;2024-01-06T09:48:29;2.92;;;2.72;;
21472;SDS011;10898;48.072;11.682;2024-01-06T09:50:35;5.10;;;3.30;;
21472;SDS011;10898;48.072;11.682;2024-01-06T09:52:39;3.95;;;2.70;;
21472;SDS011;10898;48.072;11.682;2024-01-06T09:54:46;3.63;;;3.33;;
21472;SDS011;10898;48.072;11.682;2024-01-06T09:56:55;5.00;;;3.08;;
21472;SDS011;10898;48.072;11.682;2024-01-06T09:58:57;3.47;;;3.17;;
21472;SDS011;10898;48.072;11.682;2024-01-06T10:01:00;3.75;;;2.65;;
21472;SDS011;10898;48.072;11.682;2024-01-06T10:03:03;4.07;;;2.55;;
21472;SDS011;10898;48.072;11.682;2024-01-06T10:05:05;3.65;;;3.22;;
21472;SDS011;10898;48.072;11.682;2024-01-06T10:07:08;3.05;;;2.75;;
21472;SDS011;10898;48.072;11.682;2024-01-06T10:09:13;3.45;;;2.75;;
21472;SDS011;10898;48.072;11.682;2024-01-06T10:11:15;4.25;;;3.42;;
21472;SDS011;10898;48.072;11.682;2024-01-06T10:13:17;3.28;;;2.80;;
21472;SDS011;10898;48.072;11.682;2024-01-06T10:15:19;5.90;;;2.95;;
21472;SDS011;10898;48.072;11.682;2024-01-06T10:17:21;4.47;;;2.55;;
21472;SDS011;10898;48.072;11.682;2024-01-06T10:19:24;8.88;;;4.70;;
21472;SDS011;10898;48.072;11.682;2024-01-06T10:21:26;4.75;;;3.17;;
21472;SDS011;10898;48.072;11.682;2024-01-06T10:23:28;4.10;;;3.28;;
21472;SDS011;10898;48.072;11.682;2024-01-06T10:25:30;4.03;;;3.30;;
21472;SDS011;10898;48.072;11.682;2024-01-06T10:27:39;5.45;;;2.80;;
21472;SDS011;10898;48.072;11.682;2024-01-06T10:29:42;2.40;;;2.17;;
21472;SDS011;10898;48.072;11.682;2024-01-06T10:31:45;4.75;;;3.20;;
21472;SDS011;10898;48.072;11.682;2024-01-06T10:33:51;4.68;;;2.67;;
21472;SDS011;10898;48.072;11.682;2024-01-06T10:35:53;4.82;;;2.97;;
21472;SDS011;10898;48.072;11.682;2024-01-06T10:37:59;3.65;;;3.15;;
21472;SDS011;10898;48.072;11.682;2024-01-06T10:40:14;3.45;;;2.55;;
21472;SDS011;10898;48.072;11.682;2024-01-06T10:42:20;5.85;;;2.97;;
21472;SDS011;10898;48.072;11.682;2024-01-06T10:44:22;3.90;;;3.00;;
21472;SDS011;10898;48.072;11.682;2024-01-06T10:46:26;5.45;;;3.78;;
21472;SDS011;10898;48.072;11.682;2024-01-06T10:48:29;4.55;;;3.33;;
21472;SDS011;10898;48.072;11.682;2024-01-06T10:50:34;4.35;;;3.78;;
21472;SDS011;10898;48.072;11.682;2024-01-06T10:52:37;4.85;;;3.30;;
21472;SDS011;10898;48.072;11.682;2024-01-06T10:54:39;6.18;;;3.03;;
21472;SDS011;10898;48.072;11.682;2024-01-06T10:56:42;4.97;;;3.80;;
21472;SDS011;10898;48.072;11.682;2024-01-06T10:58:46;4.72;;;3.60;;
21472;SDS011;10898;48.072;11.682;2024-01-06T11:00:50;4.75;;;3.63;;
21472;SDS011;10898;48.072;11.682;2024-01-06T11:02:53;4.43;;;3.25;;
21472;SDS011;10898;48.072;11.682;2024-01-06T11:04:56;5.80;;;3.72;;
21472;SDS011;10898;48.072;11.682;2024-01-06T11:06:58;3.38;;;2.97;;
21472;SDS011;10898;48.072;11.682;2024-01-06T11:09:09;3.65;;;2.92;;
21472;SDS011;10898;48.072;11.682;2024-01-06T11:11:21;4.95;;;2.80;;
21472;SDS011;10898;48.072;11.682;2024-01-06T11:13:25;6.28;;;3.63;;
21472;SDS011;10898;48.072;11.682;2024-01-06T11:15:43;4.75;;;3.53;;
21472;SDS011;10898;48.072;11.682;2024-01-06T11:20:04;3.50;;;3.20;;
21472;SDS011;10898;48.072;11.682;2024-01-06T11:24:33;3.42;;;3.08;;
21472;SDS011;10898;48.072;11.682;2024-01-06T11:26:38;4.82;;;2.83;;
21472;SDS011;10898;48.072;11.682;2024-01-06T11:28:45;2.90;;;2.70;;
21472;SDS011;10898;48.072;11.682;2024-01-06T11:30:48;3.30;;;3.00;;
21472;SDS011;10898;48.072;11.682;2024-01-06T11:33:08;6.20;;;2.88;;
21472;SDS011;10898;48.072;11.682;2024-01-06T11:35:12;3.72;;;2.80;;
21472;SDS011;10898;48.072;11.682;2024-01-06T11:37:14;4.03;;;3.33;;
21472;SDS011;10898;48.072;11.682;2024-01-06T11:39:34;5.90;;;3.63;;
21472;SDS011;10898;48.072;11.682;2024-01-06T11:41:48;7.28;;;3.75;;
21472;SDS011;10898;48.072;11.682;2024-01-06T11:43:53;5.68;;;3.78;;
21472;SDS011;10898;48.072;11.682;2024-01-06T11:45:55;4.27;;;3.77;;
21472;SDS011;10898;48.072;11.682;2024-01-06T11:48:03;4.15;;;3.05;;
21472;SDS011;10898;48.072;11.682;2024-01-06T11:50:06;6.82;;;3.35;;
21472;SDS011;10898;48.072;11.682;2024-01-06T11:52:08;4.80;;;3.42;;
21472;SDS011;10898;48.072;11.682;2024-01-06T11:54:10;6.03;;;3.95;;
21472;SDS011;10898;48.072;11.682;2024-01-06T11:56:15;5.72;;;3.58;;
21472;SDS011;10898;48.072;11.682;2024-01-06T11:58:17;4.10;;;3.50;;
21472;SDS011;10898;48.072;11.682;2024-01-06T12:00:19;4.65;;;3.50;;
21472;SDS011;10898;48.072;11.682;2024-01-06T12:02:21;7.50;;;4.65;;
21472;SDS011;10898;48.072;11.682;2024-01-06T12:04:23;4.22;;;3.83;;
21472;SDS011;10898;48.072;11.682;2024-01-06T12:06:28;4.95;;;3.72;;
21472;SDS011;10898;48.072;11.682;2024-01-06T12:10:32;6.60;;;4.85;;
21472;SDS011;10898;48.072;11.682;2024-01-06T12:12:34;5.88;;;4.75;;
21472;SDS011;10898;48.072;11.682;2024-01-06T12:14:36;5.82;;;3.67;;
21472;SDS011;10898;48.072;11.682;2024-01-06T12:16:38;5.63;;;4.10;;
21472;SDS011;10898;48.072;11.682;2024-01-06T12:18:40;5.53;;;4.32;;
21472;SDS011;10898;48.072;11.682;2024-01-06T12:20:42;7.47;;;4.90;;
21472;SDS011;10898;48.072;11.682;2024-01-06T12:22:46;6.25;;;4.50;;
21472;SDS011;10898;48.072;11.682;2024-01-06T12:24:51;4.50;;;4.10;;
21472;SDS011;10898;48.072;11.682;2024-01-06T12:26:54;5.78;;;4.18;;
21472;SDS011;10898;48.072;11.682;2024-01-06T12:28:57;4.13;;;3.72;;
21472;SDS011;10898;48.072;11.682;2024-01-06T12:30:59;4.67;;;3.67;;
21472;SDS011;10898;48.072;11.682;2024-01-06T12:33:01;5.35;;;3.60;;
21472;SDS011;10898;48.072;11.682;2024-01-06T12:35:03;6.70;;;4.00;;
21472;SDS011;10898;48.072;11.682;2024-01-06T12:37:05;6.25;;;4.82;;